Weather reports worldwide

Advertisment
Marienleuchte, Germany (10067): temperature & dewpoint: 24.10.2020 11:00:00 - 30.10.2020 11:00:00 (CET)Marienleuchte, Germany (10067): wind speed & gusts: 24.10.2020 11:00:00 - 30.10.2020 11:00:00 (CET)Marienleuchte, Germany (10067): wind direction: 24.10.2020 11:00:00 - 30.10.2020 11:00:00 (CET)Marienleuchte, Germany (10067): reduced air pressure: 24.10.2020 11:00:00 - 30.10.2020 11:00:00 (CET)
Date & Time tt [°C] td [°C] ff [km/h] ff [kn] fx [km/h] fx [kn] dd ppp [hPa]
30.10.2020 11:00:00 12,2 11,9 14 8 - - SSW 1010,6
30.10.2020 10:00:00 10,9 10,6 14 8 - - S 1010,4
30.10.2020 09:00:00 10,3 9,9 18 10 - - S 1010,5
30.10.2020 08:00:00 10,0 9,6 22 12 - - SSE 1010,6
30.10.2020 07:00:00 9,6 9,1 25 14 - - SSE 1010,6
30.10.2020 06:00:00 9,6 9,1 25 14 - - S 1010,9
30.10.2020 05:00:00 9,5 8,9 25 14 - - S 1011,3
30.10.2020 04:00:00 9,5 8,7 22 12 - - S 1011,8
30.10.2020 03:00:00 9,2 8,4 14 8 - - S 1012,3
30.10.2020 02:00:00 8,8 7,5 14 8 - - S 1013,0
30.10.2020 01:00:00 8,1 6,8 14 8 - - S 1013,2
30.10.2020 00:00:00 8,1 6,7 11 6 - - SSW 1013,5
29.10.2020 23:00:00 8,6 7,0 11 6 - - SSW 1013,7
29.10.2020 22:00:00 9,3 7,5 14 8 - - SSW 1013,7
29.10.2020 21:00:00 10,0 8,3 14 8 - - SW 1013,5
29.10.2020 20:00:00 10,1 7,9 14 8 - - WSW 1013,0
29.10.2020 19:00:00 9,8 8,0 18 10 - - WSW 1012,5
29.10.2020 18:00:00 10,1 7,9 18 10 - - SW 1011,9
29.10.2020 17:00:00 10,1 7,7 18 10 - - SW 1011,2
29.10.2020 16:00:00 10,6 7,4 22 12 - - WSW 1010,6
29.10.2020 15:00:00 10,8 7,6 14 8 47 25 W 1010,0
29.10.2020 14:00:00 11,5 7,5 29 16 54 29 WSW 1009,3
29.10.2020 13:00:00 11,4 7,6 29 16 - - WSW 1008,4
29.10.2020 12:00:00 10,5 7,3 29 16 50 27 WSW 1007,7
29.10.2020 11:00:00 10,3 7,1 25 14 - - WSW 1006,8
29.10.2020 10:00:00 8,8 6,6 25 14 - - SW 1006,0
29.10.2020 09:00:00 9,2 6,8 22 12 - - SW 1005,0
29.10.2020 08:00:00 9,2 7,3 18 10 - - SSW 1004,1
29.10.2020 07:00:00 9,2 8,1 22 12 - - SSW 1003,4
29.10.2020 06:00:00 9,2 8,2 18 10 - - SSW 1003,2
29.10.2020 05:00:00 9,5 8,3 18 10 - - S 1003,3
29.10.2020 04:00:00 9,5 8,3 18 10 - - S 1003,3
29.10.2020 03:00:00 9,7 8,2 18 10 - - S 1003,7
29.10.2020 02:00:00 10,5 7,5 25 14 - - S 1003,9
29.10.2020 01:00:00 10,6 7,9 22 12 - - S 1004,1
29.10.2020 00:00:00 10,3 7,5 22 12 - - S 1004,8
28.10.2020 23:00:00 10,3 7,5 22 12 - - S 1005,3
28.10.2020 22:00:00 10,4 7,0 22 12 - - S 1005,4
28.10.2020 21:00:00 10,5 6,8 25 14 - - S 1006,0
28.10.2020 20:00:00 11,0 7,0 25 14 - - S 1006,1
28.10.2020 19:00:00 11,2 7,2 22 12 - - S 1005,9
28.10.2020 18:00:00 10,5 6,9 14 8 - - S 1006,0
28.10.2020 17:00:00 11,8 7,1 18 10 - - S 1005,7
28.10.2020 16:00:00 12,7 7,3 22 12 - - S 1005,6
28.10.2020 15:00:00 13,1 8,2 22 12 - - S 1005,4
28.10.2020 14:00:00 13,1 8,2 18 10 - - S 1005,3
28.10.2020 13:00:00 13,1 8,7 18 10 - - S 1005,1
28.10.2020 12:00:00 12,9 8,4 22 12 47 25 SSW 1004,9
28.10.2020 11:00:00 12,1 8,4 22 12 - - SSW 1005,1
28.10.2020 10:00:00 11,5 9,3 22 12 - - SSW 1004,8
28.10.2020 09:00:00 10,2 9,0 18 10 - - S 1004,2
28.10.2020 08:00:00 9,8 8,8 22 12 - - S 1002,9
28.10.2020 07:00:00 9,7 8,9 22 12 - - S 1002,3
28.10.2020 06:00:00 9,5 8,5 32 18 58 31 S 1001,7
28.10.2020 05:00:00 9,4 8,1 40 21 61 33 S 1001,2
28.10.2020 04:00:00 9,6 7,8 43 23 - - S 1000,9
28.10.2020 03:00:00 9,7 7,4 43 23 68 37 S 1001,5
28.10.2020 02:00:00 9,8 7,5 32 18 61 33 S 1001,8
28.10.2020 01:00:00 10,5 6,8 40 21 - - S 1002,3
28.10.2020 00:00:00 10,4 7,0 36 19 58 31 S 1002,8
27.10.2020 23:00:00 10,5 7,3 32 18 54 29 S 1003,2
27.10.2020 22:00:00 10,6 7,5 29 16 - - S 1003,6
27.10.2020 21:00:00 10,6 7,3 25 14 47 25 S 1003,9
27.10.2020 20:00:00 10,4 7,4 29 16 50 27 S 1003,8
27.10.2020 19:00:00 10,4 7,4 29 16 - - S 1004,0
27.10.2020 18:00:00 11,0 7,1 32 18 47 25 S 1004,0
27.10.2020 17:00:00 11,0 6,9 25 14 - - S 1003,9
27.10.2020 16:00:00 11,5 7,0 22 12 - - S 1003,9
27.10.2020 15:00:00 12,0 6,9 18 10 - - S 1003,9
27.10.2020 14:00:00 11,7 7,2 25 14 - - S 1004,2
27.10.2020 13:00:00 11,1 7,0 25 14 - - S 1004,3
27.10.2020 12:00:00 11,0 7,6 25 14 - - S 1004,3
27.10.2020 11:00:00 10,6 7,5 29 16 - - S 1004,1
27.10.2020 10:00:00 9,9 7,1 22 12 - - S 1003,8
27.10.2020 09:00:00 9,1 6,8 22 12 - - S 1003,6
27.10.2020 08:00:00 8,3 6,4 22 12 - - S 1003,5
27.10.2020 07:00:00 8,2 5,9 22 12 - - S 1002,9
27.10.2020 06:00:00 8,4 6,1 25 14 - - S 1002,5
27.10.2020 05:00:00 8,4 5,9 22 12 - - S 1002,2
27.10.2020 04:00:00 8,7 6,1 25 14 - - S 1002,0
27.10.2020 03:00:00 9,0 6,4 18 10 - - S 1002,0
27.10.2020 02:00:00 9,6 6,6 22 12 - - S 1002,2
27.10.2020 01:00:00 9,5 7,0 18 10 - - S 1002,3
27.10.2020 00:00:00 9,6 7,0 18 10 - - S 1002,2
26.10.2020 23:00:00 9,7 7,6 18 10 - - S 1002,4
26.10.2020 22:00:00 10,2 8,1 18 10 - - S 1002,1
26.10.2020 21:00:00 10,5 8,6 18 10 - - S 1001,5
26.10.2020 20:00:00 10,7 8,7 18 10 - - S 1001,8
26.10.2020 19:00:00 11,0 9,0 18 10 - - S 1001,6
26.10.2020 18:00:00 11,0 9,2 14 8 - - S 1001,6
26.10.2020 17:00:00 11,4 9,7 14 8 - - S 1001,1
26.10.2020 16:00:00 11,5 10,4 22 12 - - SSE 1000,7
26.10.2020 15:00:00 11,5 10,4 18 10 - - S 1001,0
26.10.2020 14:00:00 11,7 10,3 14 8 - - S 1000,9
26.10.2020 13:00:00 12,0 10,3 22 12 - - S 1001,5
26.10.2020 12:00:00 12,1 10,4 18 10 - - S 1001,3
26.10.2020 11:00:00 11,7 10,5 14 8 - - S 1001,4
26.10.2020 10:00:00 11,6 10,6 14 8 - - S 1001,8
26.10.2020 09:00:00 11,8 10,3 18 10 - - S 1001,6
26.10.2020 08:00:00 10,9 10,1 14 8 - - S 1001,3
26.10.2020 07:00:00 10,5 9,7 11 6 - - S 1000,9
26.10.2020 06:00:00 10,5 9,7 11 6 - - S 1001,2
26.10.2020 05:00:00 10,6 9,6 11 6 - - S 1001,2
26.10.2020 04:00:00 10,8 9,8 11 6 - - S 1001,1
26.10.2020 03:00:00 11,3 10,3 14 8 - - S 1001,6
26.10.2020 02:00:00 11,6 10,7 11 6 - - S 1001,0
26.10.2020 01:00:00 11,5 10,5 14 8 - - S 1001,5
26.10.2020 00:00:00 11,7 10,9 14 8 - - S 1001,9
25.10.2020 23:00:00 11,8 11,0 14 8 - - S 1001,7
25.10.2020 22:00:00 11,6 10,3 18 10 - - S 1002,0
25.10.2020 21:00:00 12,1 11,4 18 10 - - S 1002,1
25.10.2020 20:00:00 12,2 11,5 22 12 - - S 1002,1
25.10.2020 19:00:00 12,2 11,4 25 14 - - S 1002,2
25.10.2020 18:00:00 12,4 11,4 25 14 - - S 1002,3
25.10.2020 17:00:00 12,6 11,4 25 14 - - S 1002,4
25.10.2020 16:00:00 13,0 11,5 25 14 - - S 1002,2
25.10.2020 15:00:00 13,6 11,2 25 14 47 25 S 1002,2
25.10.2020 14:00:00 14,2 10,7 29 16 50 27 S 1002,1
25.10.2020 13:00:00 14,1 10,8 29 16 - - S 1002,4
25.10.2020 12:00:00 14,5 10,6 36 19 54 29 S 1002,7
25.10.2020 11:00:00 13,8 10,3 40 21 58 31 S 1002,6
25.10.2020 10:00:00 13,6 10,2 40 21 - - S 1002,6
25.10.2020 09:00:00 13,6 10,1 40 21 58 31 S 1002,9
25.10.2020 08:00:00 13,5 10,2 32 18 54 29 S 1003,2
25.10.2020 07:00:00 13,5 10,3 32 18 - - SSE 1003,6
25.10.2020 06:00:00 13,4 10,4 32 18 47 25 S 1004,0
25.10.2020 05:00:00 13,1 10,3 29 16 47 25 S 1004,2
25.10.2020 04:00:00 13,2 10,5 32 18 - - S 1004,8
25.10.2020 03:00:00 13,1 10,4 29 16 50 27 S 1005,5
25.10.2020 02:00:00 13,4 10,7 29 16 - - S 1005,9
25.10.2020 01:00:00 - - - - - - - -
25.10.2020 00:00:00 12,9 10,9 25 14 - - S 1007,0
24.10.2020 23:00:00 12,9 11,1 25 14 - - S 1007,5
24.10.2020 22:00:00 12,7 11,2 22 12 - - S 1007,8
24.10.2020 21:00:00 12,2 10,8 14 8 - - S 1008,2
24.10.2020 20:00:00 12,8 11,3 18 10 - - S 1008,5
24.10.2020 19:00:00 12,5 11,5 22 12 - - S 1008,8
24.10.2020 18:00:00 13,0 10,5 22 12 - - S 1009,0
24.10.2020 17:00:00 13,2 8,6 14 8 - - S 1009,3
24.10.2020 16:00:00 13,6 8,1 14 8 - - SSW 1009,6
24.10.2020 15:00:00 13,7 8,0 14 8 - - SW 1009,7
24.10.2020 14:00:00 14,1 9,2 18 10 - - SW 1009,6
24.10.2020 13:00:00 13,6 9,7 11 6 - - SW 1009,5
24.10.2020 12:00:00 13,1 10,2 11 6 - - SSW 1009,4
24.10.2020 11:00:00 13,1 10,3 14 8 - - SSW 1009,2

tt = temperature
td = dewpoint
ff = wind speed
fx = gusts
dd = wind direction
ppp = reduced air pressure

Next stations